createdAt,value
2023-01-08T00:01:36.107Z,99694.06
2023-01-08T00:04:04.546Z,99743.59
2023-01-08T00:06:34.856Z,99738.25
2023-01-08T00:09:03.981Z,99709.41
2023-01-08T00:11:33.549Z,99727.53
2023-01-08T00:14:01.844Z,99723.84
2023-01-08T00:16:31.014Z,99723.03
2023-01-08T00:18:59.326Z,99714.16
2023-01-08T00:21:27.564Z,99706.13
2023-01-08T00:23:55.789Z,99706.97
2023-01-08T00:26:23.936Z,99641.41
2023-01-08T00:28:53.842Z,99664.56
2023-01-08T00:31:23.125Z,99686.53
2023-01-08T00:33:51.703Z,99652.50
2023-01-08T00:36:21.354Z,99633.38
2023-01-08T00:38:49.529Z,99671.50
2023-01-08T00:41:18.514Z,99665.13
2023-01-08T00:43:49.448Z,99658.28
2023-01-08T00:46:19.119Z,99660.94
2023-01-08T00:48:47.464Z,99658.28
2023-01-08T00:51:15.953Z,99655.44
2023-01-08T00:53:44.124Z,99656.28
2023-01-08T00:56:12.317Z,99638.13
2023-01-08T00:58:40.643Z,99647.56
2023-01-08T01:01:13.125Z,99655.59
2023-01-08T01:03:43.226Z,99633.53
2023-01-08T01:06:15.038Z,99651.25
2023-01-08T01:08:44.391Z,99649.59
2023-01-08T01:11:18.932Z,99635.19
2023-01-08T01:13:47.286Z,99625.97
2023-01-08T01:16:16.031Z,99635.88
2023-01-08T01:18:46.760Z,99630.53
2023-01-08T01:21:20.964Z,99623.81
2023-01-08T01:23:49.159Z,99643.91
2023-01-08T01:26:18.458Z,99624.34
2023-01-08T01:28:49.949Z,99607.09
2023-01-08T01:31:18.959Z,99620.66
2023-01-08T01:33:49.233Z,99615.47
2023-01-08T01:36:19.145Z,99627.88
2023-01-08T01:38:50.894Z,99577.47
2023-01-08T01:41:26.557Z,99580.53
2023-01-08T01:43:55.596Z,99610.09
2023-01-08T01:46:39.784Z,99588.63
2023-01-08T01:49:13.552Z,99612.13
2023-01-08T01:51:47.130Z,99600.72
2023-01-08T01:54:15.348Z,99601.41
2023-01-08T01:56:44.330Z,99587.03
2023-01-08T01:59:13.502Z,99581.69
2023-01-08T02:01:44.149Z,99585.38
2023-01-08T02:04:15.325Z,99588.84
2023-01-08T02:06:47.693Z,99563.53
2023-01-08T02:09:24.850Z,99583.34
2023-01-08T02:12:14.212Z,99587.03
2023-01-08T02:14:55.711Z,99576.31
2023-01-08T02:17:35.521Z,99565.78
2023-01-08T02:20:12.213Z,99563.09
2023-01-08T02:22:49.707Z,99555.25
2023-01-08T02:25:27.959Z,99553.41
2023-01-08T02:28:01.993Z,99522.75
2023-01-08T02:30:31.198Z,99546.38
2023-01-08T02:32:59.481Z,99541.84
2023-01-08T02:35:38.994Z,99524.41
2023-01-08T02:38:07.418Z,99539.19
2023-01-08T02:40:40.388Z,99545.38
2023-01-08T02:43:14.423Z,99535.50
2023-01-08T02:45:48.308Z,99532.66
2023-01-08T02:48:25.005Z,99526.50
2023-01-08T02:51:00.462Z,99496.31
2023-01-08T02:53:30.860Z,99488.78
2023-01-08T02:56:02.907Z,99516.09
2023-01-08T02:58:36.278Z,99521.47
2023-01-08T03:01:08.296Z,99508.25
2023-01-08T03:03:38.727Z,99499.38
2023-01-08T03:06:11.109Z,99503.72
2023-01-08T03:08:41.905Z,99499.38
2023-01-08T03:11:12.931Z,99498.34
2023-01-08T03:13:48.043Z,99465.88
2023-01-08T03:16:20.459Z,99481.97
2023-01-08T03:18:53.688Z,99479.31
2023-01-08T03:21:23.357Z,99480.00
2023-01-08T03:23:52.438Z,99465.94
2023-01-08T03:26:26.990Z,99462.28
2023-01-08T03:28:59.086Z,99454.56
2023-01-08T03:31:30.342Z,99462.28
2023-01-08T03:34:00.902Z,99384.13
2023-01-08T03:36:31.183Z,99439.16
2023-01-08T03:39:02.754Z,99466.78
2023-01-08T03:41:34.030Z,99466.78
2023-01-08T03:44:04.601Z,99484.50
2023-01-08T03:46:36.990Z,99478.31
2023-01-08T03:49:06.684Z,99455.69
2023-01-08T03:51:43.863Z,99469.59
2023-01-08T03:54:16.663Z,99476.63
2023-01-08T03:56:45.891Z,99471.28
2023-01-08T03:59:18.234Z,99430.09
2023-01-08T04:01:46.867Z,99450.72
2023-01-08T04:04:15.237Z,99452.53
2023-01-08T04:06:43.755Z,99427.78
2023-01-08T04:09:12.935Z,99397.31
2023-01-08T04:11:41.150Z,99429.63
2023-01-08T04:14:09.987Z,99425.13
2023-01-08T04:16:39.767Z,99418.09
2023-01-08T04:19:08.580Z,99422.47
2023-01-08T04:21:37.059Z,99417.75
2023-01-08T04:24:05.685Z,99414.44
2023-01-08T04:26:33.875Z,99411.59
2023-01-08T04:29:04.423Z,99419.13
2023-01-08T04:31:33.452Z,99412.94
2023-01-08T04:34:03.027Z,99417.44
2023-01-08T04:36:31.450Z,99370.84
2023-01-08T04:39:00.228Z,99410.06
2023-01-08T04:41:29.229Z,99403.41
2023-01-08T04:43:58.167Z,99381.81
2023-01-08T04:46:29.552Z,99393.03
2023-01-08T04:48:58.244Z,99385.66
2023-01-08T04:51:27.865Z,99387.34
2023-01-08T04:53:56.002Z,99382.00
2023-01-08T04:56:24.283Z,99391.00
2023-01-08T04:58:52.653Z,99385.66
2023-01-08T05:01:22.662Z,99389.00
2023-01-08T05:03:55.228Z,99392.38
2023-01-08T05:06:23.825Z,99379.97
2023-01-08T05:08:53.953Z,99388.00
2023-01-08T05:11:22.264Z,99364.25
2023-01-08T05:13:51.163Z,99380.13
2023-01-08T05:16:19.632Z,99387.34
2023-01-08T05:18:48.989Z,99389.00
2023-01-08T05:21:19.663Z,99349.16
2023-01-08T05:23:49.286Z,99407.06
2023-01-08T05:26:19.582Z,99391.84
2023-01-08T05:28:48.466Z,99398.03
2023-01-08T05:31:18.660Z,99399.03
2023-01-08T05:33:47.134Z,99391.00
2023-01-08T05:36:16.453Z,99405.41
2023-01-08T05:38:44.897Z,99379.66
2023-01-08T05:41:14.618Z,99361.56
2023-01-08T05:43:44.314Z,99382.97
2023-01-08T05:46:13.350Z,99389.00
2023-01-08T05:48:41.818Z,99392.69
2023-01-08T05:51:10.660Z,99391.84
2023-01-08T05:53:39.059Z,99330.56
2023-01-08T05:56:09.683Z,99373.97
2023-01-08T05:58:38.597Z,99379.97
2023-01-08T06:01:10.729Z,99375.31
2023-01-08T06:03:39.726Z,99362.91
2023-01-08T06:06:09.417Z,99354.84
2023-01-08T06:08:37.868Z,99373.81
2023-01-08T06:11:09.008Z,99371.13
2023-01-08T06:13:38.189Z,99358.53
2023-01-08T06:16:08.722Z,99370.97
2023-01-08T06:18:37.049Z,99372.97
2023-01-08T06:21:06.644Z,99378.31
2023-01-08T06:23:34.824Z,99389.84
2023-01-08T06:26:04.446Z,99383.66
2023-01-08T06:28:33.367Z,99399.72
2023-01-08T06:31:03.518Z,99358.22
2023-01-08T06:33:35.147Z,99336.75
2023-01-08T06:36:04.798Z,99324.38
2023-01-08T06:38:33.940Z,99373.28
2023-01-08T06:41:05.844Z,99387.19
2023-01-08T06:43:36.237Z,99371.09
2023-01-08T06:46:06.164Z,99358.88
2023-01-08T06:48:43.210Z,99374.94
2023-01-08T06:51:11.429Z,99373.97
2023-01-08T06:53:40.863Z,99387.34
2023-01-08T06:56:11.119Z,99374.63
2023-01-08T06:58:39.948Z,99363.44
2023-01-08T07:01:08.667Z,99370.44
2023-01-08T07:03:37.416Z,99367.59
2023-01-08T07:06:08.740Z,99308.97
2023-01-08T07:08:37.662Z,99361.25
2023-01-08T07:11:06.803Z,99374.63
2023-01-08T07:13:35.122Z,99369.44
2023-01-08T07:16:08.452Z,99346.53
2023-01-08T07:18:37.553Z,99377.28
2023-01-08T07:21:09.009Z,99370.25
2023-01-08T07:23:38.506Z,99382.00
2023-01-08T07:26:08.520Z,99386.50
2023-01-08T07:28:37.116Z,99376.66
2023-01-08T07:31:06.276Z,99377.28
2023-01-08T07:33:34.733Z,99353.88
2023-01-08T07:36:03.281Z,99364.25
2023-01-08T07:38:33.485Z,99368.25
2023-01-08T07:41:01.655Z,99371.94
2023-01-08T07:43:30.212Z,99373.97
2023-01-08T07:45:58.418Z,99376.66
2023-01-08T07:48:26.894Z,99378.31
2023-01-08T07:50:55.039Z,99370.94
2023-01-08T07:53:23.102Z,99375.63
2023-01-08T07:56:00.537Z,99384.50
2023-01-08T07:58:29.077Z,99351.00
2023-01-08T08:00:59.246Z,99385.31
2023-01-08T08:03:27.987Z,99391.34
2023-01-08T08:05:56.241Z,99399.38
2023-01-08T08:08:24.779Z,99388.16
2023-01-08T08:10:54.337Z,99378.78
2023-01-08T08:13:22.630Z,99351.13
2023-01-08T08:15:50.812Z,99397.03
2023-01-08T08:18:20.000Z,99397.03
2023-01-08T08:20:52.554Z,99385.97
2023-01-08T08:23:21.112Z,99397.72
2023-01-08T08:25:49.734Z,99396.88
2023-01-08T08:28:19.826Z,99343.09
2023-01-08T08:30:48.714Z,99406.72
2023-01-08T08:33:18.185Z,99388.66
2023-01-08T08:35:53.294Z,99402.38
2023-01-08T08:38:23.970Z,99402.72
2023-01-08T08:40:52.890Z,99374.59
2023-01-08T08:43:23.193Z,99397.72
2023-01-08T08:45:52.961Z,99401.38
2023-01-08T08:48:21.158Z,99379.81
2023-01-08T08:50:50.556Z,99405.75
2023-01-08T08:53:19.093Z,99397.72
2023-01-08T08:55:47.632Z,99393.19
2023-01-08T08:58:16.050Z,99397.34
2023-01-08T09:00:45.688Z,99387.84
2023-01-08T09:03:15.550Z,99394.03
2023-01-08T09:05:45.403Z,99371.63
2023-01-08T09:08:14.393Z,99378.78
2023-01-08T09:10:43.698Z,99371.94
2023-01-08T09:13:12.526Z,99387.03
2023-01-08T09:15:42.939Z,99374.63
2023-01-08T09:18:15.895Z,99374.94
2023-01-08T09:20:44.713Z,99377.97
2023-01-08T09:23:13.290Z,99383.31
2023-01-08T09:25:41.640Z,99367.25
2023-01-08T09:28:12.662Z,99388.50
2023-01-08T09:30:41.925Z,99385.00
2023-01-08T09:33:10.819Z,99385.00
2023-01-08T09:35:41.513Z,99391.19
2023-01-08T09:38:10.824Z,99397.03
2023-01-08T09:40:46.448Z,99388.03
2023-01-08T09:43:18.851Z,99400.38
2023-01-08T09:45:54.079Z,99360.72
2023-01-08T09:48:27.142Z,99355.19
2023-01-08T09:50:58.030Z,99355.72
2023-01-08T09:53:26.952Z,99398.72
2023-01-08T09:56:09.764Z,99413.09
2023-01-08T09:58:41.594Z,99402.38
2023-01-08T10:01:15.643Z,99395.38
2023-01-08T10:03:46.838Z,99397.88
2023-01-08T10:06:18.381Z,99398.03
2023-01-08T10:08:47.378Z,99391.69
2023-01-08T10:11:16.854Z,99357.03
2023-01-08T10:13:49.436Z,99393.38
2023-01-08T10:16:25.316Z,99387.19
2023-01-08T10:18:54.121Z,99389.00
2023-01-08T10:21:29.948Z,99381.81
2023-01-08T10:23:58.868Z,99387.00
2023-01-08T10:26:30.101Z,99380.16
2023-01-08T10:29:10.424Z,99390.00
2023-01-08T10:31:47.395Z,99382.31
2023-01-08T10:34:28.063Z,99357.53
2023-01-08T10:36:58.390Z,99388.69
2023-01-08T10:39:29.894Z,99390.34
2023-01-08T10:44:57.540Z,99382.16
2023-01-08T10:47:27.089Z,99386.00
2023-01-08T10:49:57.934Z,99353.72
2023-01-08T10:52:31.851Z,99348.38
2023-01-08T10:55:24.570Z,99348.84
2023-01-08T10:57:57.960Z,99339.53
2023-01-08T11:00:28.757Z,99330.47
2023-01-08T11:03:00.182Z,99337.16
2023-01-08T11:05:33.817Z,99285.31
2023-01-08T11:08:07.422Z,99338.84
2023-01-08T11:10:37.699Z,99335.16
2023-01-08T11:13:09.559Z,99338.84
2023-01-08T11:15:41.210Z,99328.47
2023-01-08T11:18:17.517Z,99332.13
2023-01-08T11:20:46.780Z,99316.41
2023-01-08T11:23:21.776Z,99276.97
2023-01-08T11:25:56.666Z,99324.44
2023-01-08T11:28:33.000Z,99278.63
2023-01-08T11:31:17.227Z,99317.44
2023-01-08T11:33:49.159Z,99302.72
2023-01-08T11:36:25.735Z,99306.22
2023-01-08T11:38:55.581Z,99297.38
2023-01-08T11:41:39.235Z,99297.69
2023-01-08T11:44:23.746Z,99305.38
2023-01-08T11:47:00.388Z,99308.72
2023-01-08T11:49:41.495Z,99300.69
2023-01-08T11:52:31.083Z,99307.91
2023-01-08T11:55:16.080Z,99296.50
2023-01-08T11:57:56.493Z,99302.72
2023-01-08T12:00:45.715Z,99249.53
2023-01-08T12:03:23.481Z,99279.28
2023-01-08T12:05:58.695Z,99226.47
2023-01-08T12:08:36.345Z,99275.63
2023-01-08T12:11:15.415Z,99260.91
2023-01-08T12:14:15.260Z,99237.47
2023-01-08T12:17:06.682Z,99249.22
2023-01-08T12:19:49.472Z,99231.66
2023-01-08T12:22:34.642Z,99272.25
2023-01-08T12:25:31.625Z,99275.63
2023-01-08T12:28:17.555Z,99275.25
2023-01-08T12:31:15.331Z,99247.34
2023-01-08T12:33:49.552Z,99267.84
2023-01-08T12:36:30.009Z,99267.53
2023-01-08T12:39:06.757Z,99265.63
2023-01-08T12:41:37.997Z,99269.66
2023-01-08T12:44:14.470Z,99264.13
2023-01-08T12:46:46.178Z,99244.22
2023-01-08T12:49:22.717Z,99249.09
2023-01-08T12:51:57.879Z,99259.81
2023-01-08T12:54:36.124Z,99264.13
2023-01-08T12:57:11.411Z,99268.03
2023-01-08T12:59:49.734Z,99269.69
2023-01-08T13:02:33.878Z,99272.53
2023-01-08T13:05:13.389Z,99272.88
2023-01-08T13:07:47.589Z,99266.16
2023-01-08T13:10:32.274Z,99276.88
2023-01-08T13:13:04.944Z,99271.88
2023-01-08T13:15:36.531Z,99265.66
2023-01-08T13:18:17.170Z,99263.16
2023-01-08T13:20:58.782Z,99256.13
2023-01-08T13:23:29.276Z,99249.81
2023-01-08T13:25:59.575Z,99242.13
2023-01-08T13:28:35.825Z,99255.28
2023-01-08T13:31:28.263Z,99198.66
2023-01-08T13:33:57.340Z,99212.34
2023-01-08T13:36:32.386Z,99249.09
2023-01-08T13:39:07.627Z,99254.44
2023-01-08T13:41:40.394Z,99237.41
2023-01-08T13:44:20.416Z,99226.34
2023-01-08T13:46:55.981Z,99172.56
2023-01-08T13:49:29.337Z,99225.66
2023-01-08T13:51:57.572Z,99222.13
2023-01-08T13:54:36.142Z,99224.00
2023-01-08T13:57:11.365Z,99225.66
2023-01-08T13:59:44.475Z,99215.13
2023-01-08T14:02:44.993Z,99213.28
2023-01-08T14:05:22.497Z,99212.44
2023-01-08T14:07:51.453Z,99166.88
2023-01-08T14:10:20.341Z,99212.44
2023-01-08T14:12:50.219Z,99191.06
2023-01-08T14:15:28.132Z,99215.28
2023-01-08T14:17:58.779Z,99206.59
2023-01-08T14:20:33.923Z,99132.78
2023-01-08T14:23:04.724Z,99199.56
2023-01-08T14:25:33.430Z,99210.28
2023-01-08T14:28:04.878Z,99210.28
2023-01-08T14:30:35.858Z,99200.59
2023-01-08T14:33:14.404Z,99190.91
2023-01-08T14:35:43.433Z,99190.50
2023-01-08T14:38:14.530Z,99192.22
2023-01-08T14:40:47.309Z,99190.50
2023-01-08T14:43:19.469Z,99192.22
2023-01-08T14:45:50.556Z,99192.22
2023-01-08T14:48:27.787Z,99193.03
2023-01-08T14:51:05.438Z,99182.19
2023-01-08T14:53:36.757Z,99199.22
2023-01-08T14:56:16.075Z,99160.81
2023-01-08T14:58:46.389Z,99193.88
2023-01-08T15:01:18.205Z,99189.34
2023-01-08T15:03:49.338Z,99193.03
2023-01-08T15:06:26.253Z,99160.66
2023-01-08T15:08:55.217Z,99184.66
2023-01-08T15:11:27.638Z,99184.13
2023-01-08T15:13:57.367Z,99187.47
2023-01-08T15:16:30.616Z,99172.44
2023-01-08T15:19:08.732Z,99184.78
2023-01-08T15:21:38.050Z,99184.13
2023-01-08T15:24:08.586Z,99178.13
2023-01-08T15:26:42.525Z,99172.94
2023-01-08T15:29:20.036Z,99144.06
2023-01-08T15:31:50.722Z,99177.81
2023-01-08T15:34:25.578Z,99137.72
2023-01-08T15:36:54.653Z,99173.47
2023-01-08T15:39:22.949Z,99168.47
2023-01-08T15:42:10.333Z,99185.16
2023-01-08T15:44:38.506Z,99168.13
2023-01-08T15:47:10.375Z,99186.84
2023-01-08T15:49:42.127Z,99186.00
2023-01-08T15:52:11.941Z,99192.22
2023-01-08T15:54:41.151Z,99184.19
2023-01-08T15:57:12.998Z,99152.47
2023-01-08T15:59:41.331Z,99193.03
2023-01-08T16:02:11.991Z,99188.50
2023-01-08T16:04:41.547Z,99188.50
2023-01-08T16:07:09.697Z,99173.63
2023-01-08T16:09:39.875Z,99185.00
2023-01-08T16:12:08.520Z,99186.84
2023-01-08T16:14:38.873Z,99206.25
2023-01-08T16:17:07.330Z,99184.81
2023-01-08T16:19:35.881Z,99180.31
2023-01-08T16:22:06.233Z,99177.81
2023-01-08T16:24:38.156Z,99164.25
2023-01-08T16:27:12.930Z,99163.38
2023-01-08T16:29:41.125Z,99163.38
2023-01-08T16:32:10.425Z,99166.25
2023-01-08T16:34:38.763Z,99164.41
2023-01-08T16:37:09.236Z,99165.44
2023-01-08T16:39:37.308Z,99163.75
2023-01-08T16:42:06.626Z,99160.41
2023-01-08T16:44:37.929Z,99163.75
2023-01-08T16:47:06.472Z,99159.22
2023-01-08T16:49:36.211Z,99161.06
2023-01-08T16:52:06.213Z,99158.38
2023-01-08T16:54:35.745Z,99136.69
2023-01-08T16:57:04.156Z,99160.06
2023-01-08T16:59:33.297Z,99174.09
2023-01-08T17:02:01.732Z,99168.75
2023-01-08T17:04:32.442Z,99109.28
2023-01-08T17:07:00.584Z,99154.38
2023-01-08T17:09:28.768Z,99158.88
2023-01-08T17:12:22.338Z,99158.03
2023-01-08T17:14:51.048Z,99165.09
2023-01-08T17:17:19.339Z,99175.78
2023-01-08T17:19:48.302Z,99152.41
2023-01-08T17:22:16.545Z,99178.66
2023-01-08T17:24:44.692Z,99178.66
2023-01-08T17:27:14.268Z,99184.00
2023-01-08T17:29:42.362Z,99183.16
2023-01-08T17:32:11.696Z,99130.56
2023-01-08T17:34:40.065Z,99163.13
2023-01-08T17:37:08.286Z,99177.81
2023-01-08T17:39:36.398Z,99177.81
2023-01-08T17:42:21.815Z,99177.81
2023-01-08T17:44:51.393Z,99181.50
2023-01-08T17:47:20.924Z,99179.81
2023-01-08T17:49:51.117Z,99168.09
2023-01-08T17:52:20.444Z,99160.06
2023-01-08T17:54:49.612Z,99169.09
2023-01-08T17:57:18.583Z,99158.38
2023-01-08T17:59:47.088Z,99154.03
2023-01-08T18:02:18.248Z,99141.69
2023-01-08T18:04:46.674Z,99154.72
2023-01-08T18:07:14.781Z,99161.72
2023-01-08T18:09:44.933Z,99135.00
2023-01-08T18:12:13.542Z,99130.38
2023-01-08T18:14:42.074Z,99156.72
2023-01-08T18:17:10.397Z,99160.09
2023-01-08T18:19:40.138Z,99166.25
2023-01-08T18:22:09.500Z,99149.38
2023-01-08T18:24:37.692Z,99130.88
2023-01-08T18:27:08.637Z,99156.38
2023-01-08T18:29:36.785Z,99155.19
2023-01-08T18:32:04.952Z,99152.69
2023-01-08T18:34:33.382Z,99154.38
2023-01-08T18:37:03.087Z,99158.03
2023-01-08T18:39:34.766Z,99161.72
2023-01-08T18:42:20.222Z,99166.06
2023-01-08T18:44:48.438Z,99148.06
2023-01-08T18:47:16.549Z,99153.34
2023-01-08T18:49:44.923Z,99146.50
2023-01-08T18:52:14.499Z,99147.31
2023-01-08T18:54:42.607Z,99143.66
2023-01-08T18:57:11.047Z,99154.38
2023-01-08T18:59:39.417Z,99153.53
2023-01-08T19:02:07.729Z,99148.00
2023-01-08T19:04:36.761Z,99154.03
2023-01-08T19:07:05.208Z,99159.22
2023-01-08T19:09:34.829Z,99155.69
2023-01-08T19:12:02.925Z,99159.38
2023-01-08T19:14:31.070Z,99167.41
2023-01-08T19:16:59.454Z,99163.03
2023-01-08T19:19:29.198Z,99161.72
2023-01-08T19:21:57.439Z,99155.06
2023-01-08T19:24:25.637Z,99166.91
2023-01-08T19:26:55.284Z,99148.06
2023-01-08T19:29:23.412Z,99168.91
2023-01-08T19:31:51.657Z,99172.28
2023-01-08T19:34:20.793Z,99179.47
2023-01-08T19:36:48.941Z,99156.09
2023-01-08T19:39:17.118Z,99171.13
2023-01-08T19:42:02.703Z,99177.63
2023-01-08T19:44:32.479Z,99165.44
2023-01-08T19:47:01.046Z,99163.38
2023-01-08T19:49:29.384Z,99168.75
2023-01-08T19:51:57.723Z,99147.75
2023-01-08T19:54:26.099Z,99168.75
2023-01-08T19:56:54.720Z,99163.38
2023-01-08T19:59:23.296Z,99135.38
2023-01-08T20:01:53.000Z,99167.94
2023-01-08T20:04:21.587Z,99154.91
2023-01-08T20:06:49.790Z,99168.75
2023-01-08T20:09:17.918Z,99167.09
2023-01-08T20:11:46.163Z,99123.00
2023-01-08T20:14:14.314Z,99163.75
2023-01-08T20:16:42.550Z,99163.75
2023-01-08T20:19:12.197Z,99124.66
2023-01-08T20:21:40.300Z,99151.53
2023-01-08T20:24:12.285Z,99154.72
2023-01-08T20:26:41.299Z,99156.38
2023-01-08T20:29:10.269Z,99155.69
2023-01-08T20:31:40.109Z,99149.38
2023-01-08T20:34:10.465Z,99149.38
2023-01-08T20:36:40.506Z,99133.84
2023-01-08T20:39:11.069Z,99159.06
2023-01-08T20:41:39.545Z,99154.72
2023-01-08T20:44:07.837Z,99154.72
2023-01-08T20:46:37.930Z,99161.06
2023-01-08T20:49:08.164Z,99115.00
2023-01-08T20:51:38.711Z,99152.22
2023-01-08T20:54:12.874Z,99153.03
2023-01-08T20:56:41.335Z,99156.72
2023-01-08T20:59:09.997Z,99146.00
2023-01-08T21:01:38.973Z,99147.66
2023-01-08T21:04:08.783Z,99136.97
2023-01-08T21:06:38.141Z,99120.63
2023-01-08T21:09:10.512Z,99139.63
2023-01-08T21:11:41.000Z,99131.59
2023-01-08T21:14:10.027Z,99125.78
2023-01-08T21:16:39.750Z,99113.59
2023-01-08T21:19:10.285Z,99137.97
2023-01-08T21:21:40.890Z,99110.09
2023-01-08T21:24:12.865Z,99129.94
2023-01-08T21:26:41.245Z,99129.94
2023-01-08T21:29:10.265Z,99121.91
2023-01-08T21:31:39.877Z,99120.06
2023-01-08T21:34:09.207Z,99120.88
2023-01-08T21:36:39.247Z,99113.88
2023-01-08T21:39:08.184Z,99118.22
2023-01-08T21:41:55.243Z,99062.16
2023-01-08T21:44:42.324Z,99117.22
2023-01-08T21:47:13.392Z,99110.56
2023-01-08T21:49:41.753Z,99112.84
2023-01-08T21:52:27.669Z,99110.19
2023-01-08T21:54:58.221Z,99100.53
2023-01-08T21:57:28.724Z,99103.16
2023-01-08T21:59:57.309Z,99099.84
2023-01-08T22:02:26.080Z,99065.97
2023-01-08T22:04:56.406Z,99103.16
2023-01-08T22:07:24.840Z,99052.75
2023-01-08T22:09:53.122Z,99100.50
2023-01-08T22:12:22.830Z,99095.97
2023-01-08T22:14:53.521Z,99094.13
2023-01-08T22:17:22.004Z,99097.81
2023-01-08T22:19:50.166Z,99073.28
2023-01-08T22:22:18.342Z,99087.09
2023-01-08T22:24:46.401Z,99080.09
2023-01-08T22:27:14.525Z,99087.09
2023-01-08T22:29:43.159Z,99085.44
2023-01-08T22:32:12.750Z,99083.78
2023-01-08T22:34:41.039Z,99087.09
2023-01-08T22:37:09.257Z,99059.09
2023-01-08T22:39:37.417Z,99096.16
2023-01-08T22:42:05.965Z,99083.41
2023-01-08T22:44:34.400Z,99072.22
2023-01-08T22:47:02.956Z,99083.41
2023-01-08T22:49:33.658Z,99087.09
2023-01-08T22:52:01.819Z,99082.59
2023-01-08T22:54:30.150Z,99083.41
2023-01-08T22:56:58.467Z,99046.72
2023-01-08T22:59:26.587Z,99071.03
2023-01-08T23:01:54.776Z,99065.69
2023-01-08T23:04:22.935Z,99046.34
2023-01-08T23:06:52.585Z,99074.72
2023-01-08T23:09:20.776Z,99047.69
2023-01-08T23:11:48.923Z,99064.03
2023-01-08T23:14:17.333Z,99057.66
2023-01-08T23:16:45.567Z,99045.97
2023-01-08T23:19:14.120Z,99043.41
2023-01-08T23:21:42.282Z,99045.28
2023-01-08T23:24:14.971Z,99019.25
2023-01-08T23:26:43.935Z,99049.59
2023-01-08T23:29:12.136Z,99046.94
2023-01-08T23:31:40.523Z,99044.25
2023-01-08T23:34:08.854Z,99036.16
2023-01-08T23:36:37.596Z,99011.63
2023-01-08T23:39:06.126Z,99056.00
2023-01-08T23:41:35.914Z,99039.59
2023-01-08T23:44:06.338Z,99042.59
2023-01-08T23:46:35.084Z,99042.59
2023-01-08T23:49:03.590Z,99047.94
2023-01-08T23:51:31.791Z,99042.59
2023-01-08T23:54:00.038Z,99047.94
2023-01-08T23:56:28.558Z,99047.09
2023-01-08T23:58:58.570Z,99047.94
